sensor_id;sensor_type;location;lat;lon;timestamp;temperature;humidity
36586;DHT22;22591;48.314;11.562;2022-09-09T00:03:59;13.40;99.90
36586;DHT22;22591;48.314;11.562;2022-09-09T00:06:32;13.50;99.90
36586;DHT22;22591;48.314;11.562;2022-09-09T00:09:11;13.40;99.90
36586;DHT22;22591;48.314;11.562;2022-09-09T00:11:43;13.40;99.90
36586;DHT22;22591;48.314;11.562;2022-09-09T00:14:36;13.40;99.90
36586;DHT22;22591;48.314;11.562;2022-09-09T00:17:09;13.40;99.90
36586;DHT22;22591;48.314;11.562;2022-09-09T00:23:16;13.50;99.90
36586;DHT22;22591;48.314;11.562;2022-09-09T00:25:49;13.60;99.90
36586;DHT22;22591;48.314;11.562;2022-09-09T00:28:23;13.50;99.90
36586;DHT22;22591;48.314;11.562;2022-09-09T00:30:50;13.60;99.90
36586;DHT22;22591;48.314;11.562;2022-09-09T00:33:21;13.50;99.90
36586;DHT22;22591;48.314;11.562;2022-09-09T00:35:56;13.60;99.90
36586;DHT22;22591;48.314;11.562;2022-09-09T00:38:36;13.60;99.90
36586;DHT22;22591;48.314;11.562;2022-09-09T00:43:32;13.60;99.90
36586;DHT22;22591;48.314;11.562;2022-09-09T00:46:23;13.60;99.90
36586;DHT22;22591;48.314;11.562;2022-09-09T00:49:31;13.70;99.90
36586;DHT22;22591;48.314;11.562;2022-09-09T00:52:30;13.60;99.90
36586;DHT22;22591;48.314;11.562;2022-09-09T00:55:05;13.70;99.90
36586;DHT22;22591;48.314;11.562;2022-09-09T00:57:33;13.70;99.90
36586;DHT22;22591;48.314;11.562;2022-09-09T01:03:06;13.80;99.90
36586;DHT22;22591;48.314;11.562;2022-09-09T01:11:24;13.70;99.90
36586;DHT22;22591;48.314;11.562;2022-09-09T01:13:58;13.80;99.90
36586;DHT22;22591;48.314;11.562;2022-09-09T01:16:26;13.80;99.90
36586;DHT22;22591;48.314;11.562;2022-09-09T01:18:53;13.80;99.90
36586;DHT22;22591;48.314;11.562;2022-09-09T01:21:50;13.80;99.90
36586;DHT22;22591;48.314;11.562;2022-09-09T01:24:37;13.90;99.90
36586;DHT22;22591;48.314;11.562;2022-09-09T01:27:06;13.90;99.90
36586;DHT22;22591;48.314;11.562;2022-09-09T01:29:32;13.90;99.90
36586;DHT22;22591;48.314;11.562;2022-09-09T01:31:59;13.90;99.90
36586;DHT22;22591;48.314;11.562;2022-09-09T01:34:30;13.90;99.90
36586;DHT22;22591;48.314;11.562;2022-09-09T01:39:22;13.80;99.90
36586;DHT22;22591;48.314;11.562;2022-09-09T01:41:48;13.80;99.90
36586;DHT22;22591;48.314;11.562;2022-09-09T01:44:14;13.80;99.90
36586;DHT22;22591;48.314;11.562;2022-09-09T01:46:40;13.70;99.90
36586;DHT22;22591;48.314;11.562;2022-09-09T01:49:07;13.70;99.90
36586;DHT22;22591;48.314;11.562;2022-09-09T01:51:34;13.70;99.90
36586;DHT22;22591;48.314;11.562;2022-09-09T01:54:01;13.70;99.90
36586;DHT22;22591;48.314;11.562;2022-09-09T01:56:44;13.60;99.90
36586;DHT22;22591;48.314;11.562;2022-09-09T02:07:01;13.50;99.90
36586;DHT22;22591;48.314;11.562;2022-09-09T02:09:29;13.50;99.90
36586;DHT22;22591;48.314;11.562;2022-09-09T02:12:05;13.50;99.90
36586;DHT22;22591;48.314;11.562;2022-09-09T02:14:36;13.50;99.90
36586;DHT22;22591;48.314;11.562;2022-09-09T02:17:09;13.50;99.90
36586;DHT22;22591;48.314;11.562;2022-09-09T02:19:41;13.50;99.90
36586;DHT22;22591;48.314;11.562;2022-09-09T02:22:10;13.50;99.90
36586;DHT22;22591;48.314;11.562;2022-09-09T02:24:39;13.40;99.90
36586;DHT22;22591;48.314;11.562;2022-09-09T02:27:07;13.50;99.90
36586;DHT22;22591;48.314;11.562;2022-09-09T02:29:37;13.40;99.90
36586;DHT22;22591;48.314;11.562;2022-09-09T02:32:08;13.30;99.90
36586;DHT22;22591;48.314;11.562;2022-09-09T02:34:40;13.30;99.90
36586;DHT22;22591;48.314;11.562;2022-09-09T02:37:08;13.30;99.90
36586;DHT22;22591;48.314;11.562;2022-09-09T02:39:36;13.30;99.90
36586;DHT22;22591;48.314;11.562;2022-09-09T02:42:04;13.30;99.90
36586;DHT22;22591;48.314;11.562;2022-09-09T02:44:31;13.30;99.90
36586;DHT22;22591;48.314;11.562;2022-09-09T02:47:13;13.40;99.90
36586;DHT22;22591;48.314;11.562;2022-09-09T02:50:13;13.30;99.90
36586;DHT22;22591;48.314;11.562;2022-09-09T02:53:09;13.30;99.90
36586;DHT22;22591;48.314;11.562;2022-09-09T02:55:46;13.20;99.90
36586;DHT22;22591;48.314;11.562;2022-09-09T02:58:17;13.10;99.90
36586;DHT22;22591;48.314;11.562;2022-09-09T03:00:47;13.10;99.90
36586;DHT22;22591;48.314;11.562;2022-09-09T03:03:13;12.90;99.90
36586;DHT22;22591;48.314;11.562;2022-09-09T03:05:41;12.90;99.90
36586;DHT22;22591;48.314;11.562;2022-09-09T03:08:06;12.90;99.90
36586;DHT22;22591;48.314;11.562;2022-09-09T03:10:33;12.90;99.90
36586;DHT22;22591;48.314;11.562;2022-09-09T03:13:01;12.90;99.90
36586;DHT22;22591;48.314;11.562;2022-09-09T03:15:28;13.00;99.90
36586;DHT22;22591;48.314;11.562;2022-09-09T03:17:57;13.10;99.90
36586;DHT22;22591;48.314;11.562;2022-09-09T03:20:24;13.20;99.90
36586;DHT22;22591;48.314;11.562;2022-09-09T03:22:54;13.30;99.90
36586;DHT22;22591;48.314;11.562;2022-09-09T03:25:20;13.30;99.90
36586;DHT22;22591;48.314;11.562;2022-09-09T03:27:50;13.30;99.90
36586;DHT22;22591;48.314;11.562;2022-09-09T03:30:18;13.40;99.90
36586;DHT22;22591;48.314;11.562;2022-09-09T03:32:43;13.50;99.90
36586;DHT22;22591;48.314;11.562;2022-09-09T03:35:09;13.50;99.90
36586;DHT22;22591;48.314;11.562;2022-09-09T03:37:35;13.50;99.90
36586;DHT22;22591;48.314;11.562;2022-09-09T03:40:02;13.50;99.90
36586;DHT22;22591;48.314;11.562;2022-09-09T03:42:27;13.50;99.90
36586;DHT22;22591;48.314;11.562;2022-09-09T03:44:53;13.60;99.90
36586;DHT22;22591;48.314;11.562;2022-09-09T03:47:20;13.70;99.90
36586;DHT22;22591;48.314;11.562;2022-09-09T03:49:48;13.60;99.90
36586;DHT22;22591;48.314;11.562;2022-09-09T03:52:15;13.60;99.90
36586;DHT22;22591;48.314;11.562;2022-09-09T03:54:42;13.60;99.90
36586;DHT22;22591;48.314;11.562;2022-09-09T03:57:08;13.60;99.90
36586;DHT22;22591;48.314;11.562;2022-09-09T03:59:34;13.60;99.90
36586;DHT22;22591;48.314;11.562;2022-09-09T04:02:00;13.60;99.90
36586;DHT22;22591;48.314;11.562;2022-09-09T04:04:26;13.60;99.90
36586;DHT22;22591;48.314;11.562;2022-09-09T04:06:53;13.60;99.90
36586;DHT22;22591;48.314;11.562;2022-09-09T04:09:18;13.70;99.90
36586;DHT22;22591;48.314;11.562;2022-09-09T04:11:44;13.70;99.90
36586;DHT22;22591;48.314;11.562;2022-09-09T04:14:11;13.80;99.90
36586;DHT22;22591;48.314;11.562;2022-09-09T04:16:38;13.80;99.90
36586;DHT22;22591;48.314;11.562;2022-09-09T04:19:04;13.80;99.90
36586;DHT22;22591;48.314;11.562;2022-09-09T04:21:30;13.80;99.90
36586;DHT22;22591;48.314;11.562;2022-09-09T04:23:56;13.80;99.90
36586;DHT22;22591;48.314;11.562;2022-09-09T04:26:22;13.90;99.90
36586;DHT22;22591;48.314;11.562;2022-09-09T04:28:49;13.90;99.90
36586;DHT22;22591;48.314;11.562;2022-09-09T04:31:20;13.90;99.90
36586;DHT22;22591;48.314;11.562;2022-09-09T04:33:50;13.90;99.90
36586;DHT22;22591;48.314;11.562;2022-09-09T04:36:16;13.90;99.90
36586;DHT22;22591;48.314;11.562;2022-09-09T04:38:45;14.00;99.90
36586;DHT22;22591;48.314;11.562;2022-09-09T04:41:11;14.00;99.90
36586;DHT22;22591;48.314;11.562;2022-09-09T04:43:37;14.00;99.90
36586;DHT22;22591;48.314;11.562;2022-09-09T04:46:05;14.00;99.90
36586;DHT22;22591;48.314;11.562;2022-09-09T04:48:31;14.00;99.90
36586;DHT22;22591;48.314;11.562;2022-09-09T04:51:05;14.00;99.90
36586;DHT22;22591;48.314;11.562;2022-09-09T04:53:32;14.10;99.90
36586;DHT22;22591;48.314;11.562;2022-09-09T04:56:25;14.10;99.90
36586;DHT22;22591;48.314;11.562;2022-09-09T04:58:54;14.10;99.90
36586;DHT22;22591;48.314;11.562;2022-09-09T05:01:21;14.10;99.90
36586;DHT22;22591;48.314;11.562;2022-09-09T05:03:47;14.10;99.90
36586;DHT22;22591;48.314;11.562;2022-09-09T05:06:15;14.10;99.90
36586;DHT22;22591;48.314;11.562;2022-09-09T05:08:44;14.20;99.90
36586;DHT22;22591;48.314;11.562;2022-09-09T05:11:30;14.20;99.90
36586;DHT22;22591;48.314;11.562;2022-09-09T05:13:57;14.40;99.90
36586;DHT22;22591;48.314;11.562;2022-09-09T05:16:23;14.50;99.90
36586;DHT22;22591;48.314;11.562;2022-09-09T05:18:50;14.60;99.90
36586;DHT22;22591;48.314;11.562;2022-09-09T05:21:17;14.60;99.90
36586;DHT22;22591;48.314;11.562;2022-09-09T05:23:44;14.50;99.90
36586;DHT22;22591;48.314;11.562;2022-09-09T05:26:13;14.40;99.90
36586;DHT22;22591;48.314;11.562;2022-09-09T05:28:39;14.40;99.90
36586;DHT22;22591;48.314;11.562;2022-09-09T05:31:09;14.40;99.90
36586;DHT22;22591;48.314;11.562;2022-09-09T05:33:37;14.30;99.90
36586;DHT22;22591;48.314;11.562;2022-09-09T05:36:07;14.30;99.90
36586;DHT22;22591;48.314;11.562;2022-09-09T05:38:34;14.40;99.90
36586;DHT22;22591;48.314;11.562;2022-09-09T05:41:00;14.50;99.90
36586;DHT22;22591;48.314;11.562;2022-09-09T05:43:29;14.70;99.90
36586;DHT22;22591;48.314;11.562;2022-09-09T05:46:09;14.80;99.90
36586;DHT22;22591;48.314;11.562;2022-09-09T05:48:40;14.90;99.90
36586;DHT22;22591;48.314;11.562;2022-09-09T05:51:09;15.00;99.90
36586;DHT22;22591;48.314;11.562;2022-09-09T05:53:35;15.10;99.90
36586;DHT22;22591;48.314;11.562;2022-09-09T05:58:33;15.20;99.90
36586;DHT22;22591;48.314;11.562;2022-09-09T06:01:07;15.30;99.90
36586;DHT22;22591;48.314;11.562;2022-09-09T06:03:35;15.50;99.90
36586;DHT22;22591;48.314;11.562;2022-09-09T06:06:03;15.60;99.90
36586;DHT22;22591;48.314;11.562;2022-09-09T06:08:38;15.70;99.90
36586;DHT22;22591;48.314;11.562;2022-09-09T06:11:05;15.80;99.90
36586;DHT22;22591;48.314;11.562;2022-09-09T06:13:31;15.80;99.90
36586;DHT22;22591;48.314;11.562;2022-09-09T06:15:57;15.80;99.90
36586;DHT22;22591;48.314;11.562;2022-09-09T06:18:24;15.70;99.90
36586;DHT22;22591;48.314;11.562;2022-09-09T06:21:16;15.60;99.90
36586;DHT22;22591;48.314;11.562;2022-09-09T06:23:42;15.60;99.90
36586;DHT22;22591;48.314;11.562;2022-09-09T06:26:25;15.50;99.90
36586;DHT22;22591;48.314;11.562;2022-09-09T06:28:53;15.60;99.90
36586;DHT22;22591;48.314;11.562;2022-09-09T06:31:22;15.60;99.90
36586;DHT22;22591;48.314;11.562;2022-09-09T06:33:54;15.60;99.90
36586;DHT22;22591;48.314;11.562;2022-09-09T06:36:25;15.60;99.90
36586;DHT22;22591;48.314;11.562;2022-09-09T06:38:52;15.70;99.90
36586;DHT22;22591;48.314;11.562;2022-09-09T06:41:21;15.80;99.90
36586;DHT22;22591;48.314;11.562;2022-09-09T06:43:48;16.10;99.90
36586;DHT22;22591;48.314;11.562;2022-09-09T06:46:15;16.30;99.90
36586;DHT22;22591;48.314;11.562;2022-09-09T06:48:43;16.50;99.90
36586;DHT22;22591;48.314;11.562;2022-09-09T06:51:20;16.70;99.90
36586;DHT22;22591;48.314;11.562;2022-09-09T06:53:57;16.60;99.90
36586;DHT22;22591;48.314;11.562;2022-09-09T06:56:28;16.50;99.90
36586;DHT22;22591;48.314;11.562;2022-09-09T06:58:57;16.50;99.90
36586;DHT22;22591;48.314;11.562;2022-09-09T07:01:33;16.50;99.90
36586;DHT22;22591;48.314;11.562;2022-09-09T07:03:59;16.40;99.90
36586;DHT22;22591;48.314;11.562;2022-09-09T07:06:28;16.30;99.90
36586;DHT22;22591;48.314;11.562;2022-09-09T07:08:59;15.90;99.90
36586;DHT22;22591;48.314;11.562;2022-09-09T07:11:28;15.70;99.90
36586;DHT22;22591;48.314;11.562;2022-09-09T07:13:57;15.50;99.90
36586;DHT22;22591;48.314;11.562;2022-09-09T07:16:22;15.60;99.90
36586;DHT22;22591;48.314;11.562;2022-09-09T07:18:52;15.70;99.90
36586;DHT22;22591;48.314;11.562;2022-09-09T07:21:19;15.60;99.90
36586;DHT22;22591;48.314;11.562;2022-09-09T07:23:46;15.60;99.90
36586;DHT22;22591;48.314;11.562;2022-09-09T07:26:21;15.60;99.90
36586;DHT22;22591;48.314;11.562;2022-09-09T07:28:48;15.70;99.90
36586;DHT22;22591;48.314;11.562;2022-09-09T07:31:19;15.50;99.90
36586;DHT22;22591;48.314;11.562;2022-09-09T07:33:46;15.40;99.90
36586;DHT22;22591;48.314;11.562;2022-09-09T07:36:21;15.40;99.90
36586;DHT22;22591;48.314;11.562;2022-09-09T07:38:59;15.50;99.90
36586;DHT22;22591;48.314;11.562;2022-09-09T07:41:31;15.40;99.90
36586;DHT22;22591;48.314;11.562;2022-09-09T07:44:05;15.50;99.90
36586;DHT22;22591;48.314;11.562;2022-09-09T07:46:34;15.60;99.90
36586;DHT22;22591;48.314;11.562;2022-09-09T07:49:01;15.70;99.90
36586;DHT22;22591;48.314;11.562;2022-09-09T07:51:32;15.80;99.90
36586;DHT22;22591;48.314;11.562;2022-09-09T07:54:02;16.00;99.90
36586;DHT22;22591;48.314;11.562;2022-09-09T07:56:30;16.10;99.90
36586;DHT22;22591;48.314;11.562;2022-09-09T07:58:58;16.10;99.90
36586;DHT22;22591;48.314;11.562;2022-09-09T08:01:29;16.40;99.90
36586;DHT22;22591;48.314;11.562;2022-09-09T08:04:07;16.40;99.90
36586;DHT22;22591;48.314;11.562;2022-09-09T08:06:38;16.50;99.90
36586;DHT22;22591;48.314;11.562;2022-09-09T08:09:05;16.70;99.90
36586;DHT22;22591;48.314;11.562;2022-09-09T08:11:34;16.90;99.90
36586;DHT22;22591;48.314;11.562;2022-09-09T08:14:03;16.90;99.90
36586;DHT22;22591;48.314;11.562;2022-09-09T08:16:33;16.90;99.90
36586;DHT22;22591;48.314;11.562;2022-09-09T08:19:00;16.90;99.90
36586;DHT22;22591;48.314;11.562;2022-09-09T08:21:28;17.10;99.90
36586;DHT22;22591;48.314;11.562;2022-09-09T08:23:55;17.20;99.90
36586;DHT22;22591;48.314;11.562;2022-09-09T08:26:25;17.50;99.90
36586;DHT22;22591;48.314;11.562;2022-09-09T08:28:54;17.80;99.90
36586;DHT22;22591;48.314;11.562;2022-09-09T08:31:26;18.20;99.90
36586;DHT22;22591;48.314;11.562;2022-09-09T08:33:55;18.40;99.90
36586;DHT22;22591;48.314;11.562;2022-09-09T08:36:26;18.70;99.90
36586;DHT22;22591;48.314;11.562;2022-09-09T08:38:55;18.80;99.90
36586;DHT22;22591;48.314;11.562;2022-09-09T08:55:51;19.30;99.90
36586;DHT22;22591;48.314;11.562;2022-09-09T08:58:25;19.50;99.90
36586;DHT22;22591;48.314;11.562;2022-09-09T09:11:50;19.80;99.90
36586;DHT22;22591;48.314;11.562;2022-09-09T09:14:24;19.40;99.90
36586;DHT22;22591;48.314;11.562;2022-09-09T09:17:00;19.40;99.90
36586;DHT22;22591;48.314;11.562;2022-09-09T09:19:28;19.50;99.90
36586;DHT22;22591;48.314;11.562;2022-09-09T09:24:56;19.40;99.90
36586;DHT22;22591;48.314;11.562;2022-09-09T09:27:32;19.50;99.90
36586;DHT22;22591;48.314;11.562;2022-09-09T09:30:00;19.60;99.90
36586;DHT22;22591;48.314;11.562;2022-09-09T09:32:30;19.80;99.90
36586;DHT22;22591;48.314;11.562;2022-09-09T09:34:58;20.00;99.90
36586;DHT22;22591;48.314;11.562;2022-09-09T09:37:34;20.60;99.90
36586;DHT22;22591;48.314;11.562;2022-09-09T09:40:17;21.00;99.90
36586;DHT22;22591;48.314;11.562;2022-09-09T09:43:00;21.40;99.90
36586;DHT22;22591;48.314;11.562;2022-09-09T09:45:45;21.80;99.90
36586;DHT22;22591;48.314;11.562;2022-09-09T09:48:13;21.90;99.90
36586;DHT22;22591;48.314;11.562;2022-09-09T09:50:59;21.90;99.90
36586;DHT22;22591;48.314;11.562;2022-09-09T09:53:32;21.80;99.90
36586;DHT22;22591;48.314;11.562;2022-09-09T09:56:03;21.80;99.90
36586;DHT22;22591;48.314;11.562;2022-09-09T09:58:31;21.60;99.90
36586;DHT22;22591;48.314;11.562;2022-09-09T10:01:00;21.30;99.90
36586;DHT22;22591;48.314;11.562;2022-09-09T10:03:31;20.80;99.90
36586;DHT22;22591;48.314;11.562;2022-09-09T10:05:58;20.80;99.90
36586;DHT22;22591;48.314;11.562;2022-09-09T10:08:25;20.80;99.90
36586;DHT22;22591;48.314;11.562;2022-09-09T10:14:01;20.90;99.90
36586;DHT22;22591;48.314;11.562;2022-09-09T10:16:39;21.00;99.90
36586;DHT22;22591;48.314;11.562;2022-09-09T10:19:31;20.80;99.90
36586;DHT22;22591;48.314;11.562;2022-09-09T10:25:15;20.60;99.90
36586;DHT22;22591;48.314;11.562;2022-09-09T10:30:22;21.00;99.90
36586;DHT22;22591;48.314;11.562;2022-09-09T10:36:04;21.50;99.90
36586;DHT22;22591;48.314;11.562;2022-09-09T10:38:45;21.90;99.90
36586;DHT22;22591;48.314;11.562;2022-09-09T10:41:42;22.10;99.90
36586;DHT22;22591;48.314;11.562;2022-09-09T10:47:43;22.10;99.90
36586;DHT22;22591;48.314;11.562;2022-09-09T10:56:29;23.20;99.90
36586;DHT22;22591;48.314;11.562;2022-09-09T11:01:41;23.20;99.90
36586;DHT22;22591;48.314;11.562;2022-09-09T11:04:32;23.40;99.90
36586;DHT22;22591;48.314;11.562;2022-09-09T11:07:07;23.30;99.90
36586;DHT22;22591;48.314;11.562;2022-09-09T11:09:39;23.40;99.90
36586;DHT22;22591;48.314;11.562;2022-09-09T11:12:15;23.10;99.90
36586;DHT22;22591;48.314;11.562;2022-09-09T11:17:41;22.90;99.90
36586;DHT22;22591;48.314;11.562;2022-09-09T11:20:11;23.20;99.90
36586;DHT22;22591;48.314;11.562;2022-09-09T11:23:08;23.40;99.90
36586;DHT22;22591;48.314;11.562;2022-09-09T11:26:00;23.40;99.90
36586;DHT22;22591;48.314;11.562;2022-09-09T11:40:19;23.40;99.30
36586;DHT22;22591;48.314;11.562;2022-09-09T11:42:47;23.30;99.00
36586;DHT22;22591;48.314;11.562;2022-09-09T11:45:24;23.20;99.60
36586;DHT22;22591;48.314;11.562;2022-09-09T11:48:01;23.60;99.10
36586;DHT22;22591;48.314;11.562;2022-09-09T11:50:35;24.00;97.80
36586;DHT22;22591;48.314;11.562;2022-09-09T11:53:21;24.20;98.10
36586;DHT22;22591;48.314;11.562;2022-09-09T11:56:12;24.70;95.80
36586;DHT22;22591;48.314;11.562;2022-09-09T11:58:43;25.10;96.60
36586;DHT22;22591;48.314;11.562;2022-09-09T12:01:30;25.30;94.80
36586;DHT22;22591;48.314;11.562;2022-09-09T12:04:09;25.20;94.00
36586;DHT22;22591;48.314;11.562;2022-09-09T12:06:51;25.10;94.00
36586;DHT22;22591;48.314;11.562;2022-09-09T12:12:06;24.10;96.40
36586;DHT22;22591;48.314;11.562;2022-09-09T12:17:22;23.10;96.60
36586;DHT22;22591;48.314;11.562;2022-09-09T12:20:11;23.20;97.00
36586;DHT22;22591;48.314;11.562;2022-09-09T12:31:14;23.20;94.00
36586;DHT22;22591;48.314;11.562;2022-09-09T12:33:45;23.40;95.10
36586;DHT22;22591;48.314;11.562;2022-09-09T12:36:18;23.40;96.00
36586;DHT22;22591;48.314;11.562;2022-09-09T12:38:47;23.20;95.10
36586;DHT22;22591;48.314;11.562;2022-09-09T12:41:19;23.10;95.70
36586;DHT22;22591;48.314;11.562;2022-09-09T12:43:49;23.20;95.10
36586;DHT22;22591;48.314;11.562;2022-09-09T12:46:33;23.20;94.60
36586;DHT22;22591;48.314;11.562;2022-09-09T12:49:05;23.20;95.00
36586;DHT22;22591;48.314;11.562;2022-09-09T12:51:33;22.80;95.00
36586;DHT22;22591;48.314;11.562;2022-09-09T12:53:59;22.90;95.40
36586;DHT22;22591;48.314;11.562;2022-09-09T12:56:30;23.10;95.70
36586;DHT22;22591;48.314;11.562;2022-09-09T12:59:01;23.00;95.10
36586;DHT22;22591;48.314;11.562;2022-09-09T13:01:31;23.30;94.40
36586;DHT22;22591;48.314;11.562;2022-09-09T13:04:00;23.70;94.60
36586;DHT22;22591;48.314;11.562;2022-09-09T13:06:29;23.70;94.50
36586;DHT22;22591;48.314;11.562;2022-09-09T13:09:02;23.60;94.80
36586;DHT22;22591;48.314;11.562;2022-09-09T13:11:41;23.50;95.20
36586;DHT22;22591;48.314;11.562;2022-09-09T13:14:18;23.40;95.20
36586;DHT22;22591;48.314;11.562;2022-09-09T13:16:56;23.50;94.80
36586;DHT22;22591;48.314;11.562;2022-09-09T13:19:24;23.70;95.30
36586;DHT22;22591;48.314;11.562;2022-09-09T13:21:55;23.50;95.40
36586;DHT22;22591;48.314;11.562;2022-09-09T13:24:31;23.60;95.00
36586;DHT22;22591;48.314;11.562;2022-09-09T13:27:26;23.50;94.50
36586;DHT22;22591;48.314;11.562;2022-09-09T13:29:56;23.50;94.90
36586;DHT22;22591;48.314;11.562;2022-09-09T13:32:23;23.60;94.50
36586;DHT22;22591;48.314;11.562;2022-09-09T13:34:56;23.90;94.60
36586;DHT22;22591;48.314;11.562;2022-09-09T13:37:40;23.90;93.70
36586;DHT22;22591;48.314;11.562;2022-09-09T13:40:21;23.70;93.70
36586;DHT22;22591;48.314;11.562;2022-09-09T13:42:50;23.60;93.90
36586;DHT22;22591;48.314;11.562;2022-09-09T13:45:24;23.60;93.80
36586;DHT22;22591;48.314;11.562;2022-09-09T13:47:54;23.80;93.70
36586;DHT22;22591;48.314;11.562;2022-09-09T13:50:28;23.80;93.10
36586;DHT22;22591;48.314;11.562;2022-09-09T13:52:56;23.70;93.10
36586;DHT22;22591;48.314;11.562;2022-09-09T13:55:25;23.60;93.40
36586;DHT22;22591;48.314;11.562;2022-09-09T13:57:58;23.50;92.60
36586;DHT22;22591;48.314;11.562;2022-09-09T14:00:35;23.40;92.10
36586;DHT22;22591;48.314;11.562;2022-09-09T14:03:02;23.40;91.40
36586;DHT22;22591;48.314;11.562;2022-09-09T14:05:32;23.40;91.70
36586;DHT22;22591;48.314;11.562;2022-09-09T14:07:59;23.40;92.10
36586;DHT22;22591;48.314;11.562;2022-09-09T14:10:27;23.40;92.10
36586;DHT22;22591;48.314;11.562;2022-09-09T14:12:53;23.50;92.60
36586;DHT22;22591;48.314;11.562;2022-09-09T14:15:20;23.40;94.10
36586;DHT22;22591;48.314;11.562;2022-09-09T14:17:48;23.70;94.20
36586;DHT22;22591;48.314;11.562;2022-09-09T14:20:14;24.00;92.60
36586;DHT22;22591;48.314;11.562;2022-09-09T14:22:41;23.70;91.70
36586;DHT22;22591;48.314;11.562;2022-09-09T14:25:07;23.40;93.20
36586;DHT22;22591;48.314;11.562;2022-09-09T14:27:34;23.30;92.40
36586;DHT22;22591;48.314;11.562;2022-09-09T14:30:03;23.10;92.80
36586;DHT22;22591;48.314;11.562;2022-09-09T14:32:33;23.00;93.40
36586;DHT22;22591;48.314;11.562;2022-09-09T14:34:59;22.90;94.70
36586;DHT22;22591;48.314;11.562;2022-09-09T14:37:25;22.50;94.70
36586;DHT22;22591;48.314;11.562;2022-09-09T14:39:55;22.10;95.60
36586;DHT22;22591;48.314;11.562;2022-09-09T14:42:22;21.70;96.30
36586;DHT22;22591;48.314;11.562;2022-09-09T14:44:51;21.50;96.70
36586;DHT22;22591;48.314;11.562;2022-09-09T14:47:17;21.50;96.80
36586;DHT22;22591;48.314;11.562;2022-09-09T14:49:45;21.40;96.70
36586;DHT22;22591;48.314;11.562;2022-09-09T14:52:12;21.40;96.70
36586;DHT22;22591;48.314;11.562;2022-09-09T14:54:40;21.50;97.00
36586;DHT22;22591;48.314;11.562;2022-09-09T14:57:05;21.60;96.70
36586;DHT22;22591;48.314;11.562;2022-09-09T14:59:31;21.60;96.80
36586;DHT22;22591;48.314;11.562;2022-09-09T15:01:58;21.70;96.40
36586;DHT22;22591;48.314;11.562;2022-09-09T15:04:27;21.70;96.10
36586;DHT22;22591;48.314;11.562;2022-09-09T15:06:54;21.50;95.90
36586;DHT22;22591;48.314;11.562;2022-09-09T15:09:19;21.20;96.10
36586;DHT22;22591;48.314;11.562;2022-09-09T15:11:46;21.10;96.40
36586;DHT22;22591;48.314;11.562;2022-09-09T15:14:13;21.00;96.60
36586;DHT22;22591;48.314;11.562;2022-09-09T15:16:41;20.90;96.80
36586;DHT22;22591;48.314;11.562;2022-09-09T15:19:07;21.10;97.10
36586;DHT22;22591;48.314;11.562;2022-09-09T15:21:35;21.50;96.80
36586;DHT22;22591;48.314;11.562;2022-09-09T15:24:02;21.80;96.10
36586;DHT22;22591;48.314;11.562;2022-09-09T15:26:31;22.10;95.20
36586;DHT22;22591;48.314;11.562;2022-09-09T15:28:59;22.00;95.20
36586;DHT22;22591;48.314;11.562;2022-09-09T15:31:28;21.80;95.30
36586;DHT22;22591;48.314;11.562;2022-09-09T15:34:03;21.70;95.70
36586;DHT22;22591;48.314;11.562;2022-09-09T15:36:41;21.60;95.90
36586;DHT22;22591;48.314;11.562;2022-09-09T15:39:14;21.60;96.00
36586;DHT22;22591;48.314;11.562;2022-09-09T15:41:43;21.30;96.50
36586;DHT22;22591;48.314;11.562;2022-09-09T15:44:10;21.20;96.70
36586;DHT22;22591;48.314;11.562;2022-09-09T15:46:45;21.10;97.10
36586;DHT22;22591;48.314;11.562;2022-09-09T15:49:29;21.10;97.40
36586;DHT22;22591;48.314;11.562;2022-09-09T15:51:59;21.00;96.90
36586;DHT22;22591;48.314;11.562;2022-09-09T15:54:35;21.00;97.60
36586;DHT22;22591;48.314;11.562;2022-09-09T15:57:04;20.80;97.50
36586;DHT22;22591;48.314;11.562;2022-09-09T15:59:32;20.70;97.70
36586;DHT22;22591;48.314;11.562;2022-09-09T16:02:00;20.80;97.10
36586;DHT22;22591;48.314;11.562;2022-09-09T16:04:27;20.70;97.00
36586;DHT22;22591;48.314;11.562;2022-09-09T16:07:03;20.70;96.50
36586;DHT22;22591;48.314;11.562;2022-09-09T16:09:34;20.60;96.60
36586;DHT22;22591;48.314;11.562;2022-09-09T16:12:03;20.50;96.80
36586;DHT22;22591;48.314;11.562;2022-09-09T16:14:33;20.30;96.90
36586;DHT22;22591;48.314;11.562;2022-09-09T16:17:03;20.20;97.20
36586;DHT22;22591;48.314;11.562;2022-09-09T16:19:30;20.10;97.50
36586;DHT22;22591;48.314;11.562;2022-09-09T16:21:56;20.00;97.70
36586;DHT22;22591;48.314;11.562;2022-09-09T16:24:23;19.90;97.90
36586;DHT22;22591;48.314;11.562;2022-09-09T16:26:52;20.00;98.40
36586;DHT22;22591;48.314;11.562;2022-09-09T16:29:18;20.00;98.30
36586;DHT22;22591;48.314;11.562;2022-09-09T16:31:46;20.20;97.70
36586;DHT22;22591;48.314;11.562;2022-09-09T16:34:14;20.20;97.60
36586;DHT22;22591;48.314;11.562;2022-09-09T16:36:42;20.30;97.90
36586;DHT22;22591;48.314;11.562;2022-09-09T16:39:15;20.30;98.00
36586;DHT22;22591;48.314;11.562;2022-09-09T16:41:43;20.30;97.90
36586;DHT22;22591;48.314;11.562;2022-09-09T16:44:13;20.20;97.70
36586;DHT22;22591;48.314;11.562;2022-09-09T16:46:47;20.10;97.90
36586;DHT22;22591;48.314;11.562;2022-09-09T16:49:15;20.00;97.30
36586;DHT22;22591;48.314;11.562;2022-09-09T16:51:49;20.00;97.50
36586;DHT22;22591;48.314;11.562;2022-09-09T16:54:16;20.00;97.90
36586;DHT22;22591;48.314;11.562;2022-09-09T16:56:48;19.80;97.60
36586;DHT22;22591;48.314;11.562;2022-09-09T16:59:17;19.60;97.60
36586;DHT22;22591;48.314;11.562;2022-09-09T17:01:47;19.40;98.20
36586;DHT22;22591;48.314;11.562;2022-09-09T17:04:16;19.20;97.70
36586;DHT22;22591;48.314;11.562;2022-09-09T17:06:48;19.00;98.30
36586;DHT22;22591;48.314;11.562;2022-09-09T17:09:22;18.80;98.70
36586;DHT22;22591;48.314;11.562;2022-09-09T17:11:50;18.60;98.70
36586;DHT22;22591;48.314;11.562;2022-09-09T17:14:20;18.50;99.20
36586;DHT22;22591;48.314;11.562;2022-09-09T17:16:47;18.30;99.50
36586;DHT22;22591;48.314;11.562;2022-09-09T17:19:14;18.10;99.50
36586;DHT22;22591;48.314;11.562;2022-09-09T17:21:41;18.10;99.70
36586;DHT22;22591;48.314;11.562;2022-09-09T17:24:07;17.90;99.90
36586;DHT22;22591;48.314;11.562;2022-09-09T17:26:34;17.80;99.90
36586;DHT22;22591;48.314;11.562;2022-09-09T17:29:03;17.70;99.90
36586;DHT22;22591;48.314;11.562;2022-09-09T17:31:31;17.50;99.90